Time;durP1;ratioP1;P1;durP2;ratioP2;P2;SDS_P1;SDS_P2;PMS_P1;PMS_P2;Temp;Humidity;BMP_temperature;BMP_pressure;BME280_temperature;BME280_humidity;BME280_pressure;Samples;Min_cycle;Max_cycle;Signal;HPM_P1;HPM_P2
2023/02/16 00:01:50;;;;;;;;;;;8.90;87.00;;;;;;7387841;19;19914;-80
2023/02/16 00:04:21;;;;;;;;;;;8.90;87.10;;;;;;7387896;19;20140;-81
2023/02/16 00:06:54;;;;;;;;;;;8.90;87.00;;;;;;7390120;19;19907;-81
2023/02/16 00:09:25;;;;;;;;;;;8.90;87.10;;;;;;7407568;19;20209;-81
2023/02/16 00:14:36;;;;;;;;;;;8.80;86.60;;;;;;7387122;19;20008;-81
2023/02/16 00:17:05;;;;;;;;;;;8.80;86.50;;;;;;7386683;19;19911;-80
2023/02/16 00:19:41;;;;;;;;;;;8.80;86.50;;;;;;7387081;19;19914;-81
2023/02/16 00:22:12;;;;;;;;;;;8.80;86.50;;;;;;7386019;19;19931;-81
2023/02/16 00:24:41;;;;;;;;;;;8.80;86.60;;;;;;7386534;19;19915;-81
2023/02/16 00:27:18;;;;;;;;;;;8.80;86.80;;;;;;7406520;19;19934;-81
2023/02/16 00:29:47;;;;;;;;;;;8.80;86.90;;;;;;7385604;19;19985;-80
2023/02/16 00:32:16;;;;;;;;;;;8.80;87.20;;;;;;7383631;19;19915;-80
2023/02/16 00:34:47;;;;;;;;;;;8.70;87.10;;;;;;7386066;19;19914;-80
2023/02/16 00:37:20;;;;;;;;;;;8.80;87.30;;;;;;7385307;19;20227;-80
2023/02/16 00:39:53;;;;;;;;;;;8.80;87.30;;;;;;7386034;19;20115;-80
2023/02/16 00:42:27;;;;;;;;;;;8.80;87.10;;;;;;7406789;19;19911;-80
2023/02/16 00:45:00;;;;;;;;;;;8.80;86.90;;;;;;7384313;19;19907;-81
2023/02/16 00:47:32;;;;;;;;;;;8.80;86.60;;;;;;7385521;19;20218;-80
2023/02/16 00:50:02;;;;;;;;;;;8.80;86.70;;;;;;7385770;19;20259;-81
2023/02/16 00:52:38;;;;;;;;;;;8.70;86.60;;;;;;7387379;19;19935;-80
2023/02/16 00:55:08;;;;;;;;;;;8.70;86.40;;;;;;7386124;19;20041;-80
2023/02/16 00:57:38;;;;;;;;;;;8.70;86.40;;;;;;7384656;19;19939;-80
2023/02/16 01:00:08;;;;;;;;;;;8.60;86.60;;;;;;7405453;19;19979;-80
2023/02/16 01:02:36;;;;;;;;;;;8.60;86.60;;;;;;7388684;19;20341;-80
2023/02/16 01:05:08;;;;;;;;;;;8.60;86.50;;;;;;7386751;19;19911;-82
2023/02/16 01:13:01;;;;;;;;;;;8.50;86.60;;;;;;7386613;19;19942;-80
2023/02/16 01:15:30;;;;;;;;;;;8.40;86.90;;;;;;7385326;19;20002;-80
2023/02/16 01:17:58;;;;;;;;;;;8.50;87.10;;;;;;7405106;19;19907;-80
2023/02/16 01:20:28;;;;;;;;;;;8.40;86.90;;;;;;7384610;19;19945;-80
2023/02/16 01:22:59;;;;;;;;;;;8.50;87.10;;;;;;7384880;19;19915;-80
2023/02/16 01:25:28;;;;;;;;;;;8.40;87.10;;;;;;7384992;19;19935;-80
2023/02/16 01:27:58;;;;;;;;;;;8.40;87.10;;;;;;7383912;19;19907;-81
2023/02/16 01:30:29;;;;;;;;;;;8.50;86.90;;;;;;7394000;19;19914;-80
2023/02/16 01:32:59;;;;;;;;;;;8.50;86.90;;;;;;7404824;19;20187;-81
2023/02/16 01:35:38;;;;;;;;;;;8.50;86.80;;;;;;7384778;19;19919;-81
2023/02/16 01:38:13;;;;;;;;;;;8.40;86.60;;;;;;7384997;19;19915;-81
2023/02/16 01:40:44;;;;;;;;;;;8.50;86.50;;;;;;7384536;19;19914;-81
2023/02/16 01:43:19;;;;;;;;;;;8.50;86.40;;;;;;7385398;19;19927;-81
2023/02/16 01:45:48;;;;;;;;;;;8.50;86.40;;;;;;7391645;19;19908;-81
2023/02/16 01:48:23;;;;;;;;;;;8.50;86.30;;;;;;7411757;19;19907;-81
2023/02/16 01:50:56;;;;;;;;;;;8.40;86.50;;;;;;7392718;19;19911;-81
2023/02/16 01:53:30;;;;;;;;;;;8.40;86.60;;;;;;7391883;19;20112;-81
2023/02/16 01:56:01;;;;;;;;;;;8.40;86.80;;;;;;7391788;19;19964;-81
2023/02/16 01:58:37;;;;;;;;;;;8.30;86.80;;;;;;7391716;19;19918;-80
2023/02/16 02:01:21;;;;;;;;;;;8.40;86.90;;;;;;7390756;19;19907;-81
2023/02/16 02:06:34;;;;;;;;;;;8.40;86.90;;;;;;7393055;19;19911;-81
2023/02/16 02:09:07;;;;;;;;;;;8.30;86.70;;;;;;7411473;19;19935;-80
2023/02/16 02:11:42;;;;;;;;;;;8.40;86.80;;;;;;7391707;19;19911;-80
2023/02/16 02:14:13;;;;;;;;;;;8.30;86.80;;;;;;7390782;19;19907;-81
2023/02/16 02:16:41;;;;;;;;;;;8.30;86.70;;;;;;7391435;19;19959;-80
2023/02/16 02:19:10;;;;;;;;;;;8.30;86.60;;;;;;7389801;19;19918;-80
2023/02/16 02:25:07;;;;;;;;;;;8.30;87.40;;;;;;7390192;19;20123;-79
2023/02/16 02:27:43;;;;;;;;;;;8.30;86.80;;;;;;7388267;19;19915;-79
2023/02/16 02:30:27;;;;;;;;;;;8.20;86.80;;;;;;7410061;19;19914;-80
2023/02/16 02:33:11;;;;;;;;;;;8.30;86.90;;;;;;7389308;19;19922;-80
2023/02/16 02:35:45;;;;;;;;;;;8.30;86.70;;;;;;7390790;19;19911;-80
2023/02/16 02:38:15;;;;;;;;;;;8.20;86.30;;;;;;7390427;19;19921;-80
2023/02/16 02:40:49;;;;;;;;;;;8.30;86.20;;;;;;7391009;19;19911;-80
2023/02/16 02:43:22;;;;;;;;;;;8.20;86.00;;;;;;7390886;19;19911;-80
2023/02/16 02:45:53;;;;;;;;;;;8.20;85.70;;;;;;7389261;19;19962;-80
2023/02/16 02:48:22;;;;;;;;;;;8.20;85.50;;;;;;7408813;19;19911;-80
2023/02/16 02:53:34;;;;;;;;;;;8.20;85.60;;;;;;7390873;19;19911;-80
2023/02/16 03:01:32;;;;;;;;;;;8.10;85.90;;;;;;7391364;19;20024;-80
2023/02/16 03:04:01;;;;;;;;;;;8.20;86.00;;;;;;7389786;19;19922;-80
2023/02/16 03:06:31;;;;;;;;;;;8.10;86.20;;;;;;7389241;19;19911;-79
2023/02/16 03:09:02;;;;;;;;;;;8.10;85.90;;;;;;7411047;19;19944;-80
2023/02/16 03:14:16;;;;;;;;;;;8.00;86.10;;;;;;7390350;19;19915;-80
2023/02/16 03:16:46;;;;;;;;;;;8.10;86.50;;;;;;7389880;19;19911;-80
2023/02/16 03:30:07;;;;;;;;;;;8.00;86.60;;;;;;7391024;19;19915;-81
2023/02/16 03:32:35;;;;;;;;;;;8.10;86.80;;;;;;7389352;19;19911;-81
2023/02/16 03:35:04;;;;;;;;;;;8.10;86.60;;;;;;7389727;19;19919;-82
2023/02/16 03:37:33;;;;;;;;;;;8.10;86.80;;;;;;7390084;19;19907;-81
2023/02/16 03:42:51;;;;;;;;;;;8.00;87.20;;;;;;7389635;19;19932;-81
2023/02/16 03:45:25;;;;;;;;;;;8.10;87.20;;;;;;7409824;19;19911;-81
2023/02/16 03:47:56;;;;;;;;;;;8.10;87.10;;;;;;7390481;19;19907;-81
2023/02/16 03:50:25;;;;;;;;;;;8.10;86.90;;;;;;7390927;19;19915;-81
2023/02/16 03:53:05;;;;;;;;;;;8.10;86.80;;;;;;7389773;19;19931;-81
2023/02/16 03:55:34;;;;;;;;;;;8.10;86.90;;;;;;7390211;19;19999;-81
2023/02/16 03:58:02;;;;;;;;;;;8.00;87.00;;;;;;7388756;19;20187;-81
2023/02/16 04:00:34;;;;;;;;;;;8.00;87.40;;;;;;7388326;19;19911;-81
2023/02/16 04:03:04;;;;;;;;;;;8.00;87.70;;;;;;7409418;19;19907;-81
2023/02/16 04:05:35;;;;;;;;;;;8.00;87.80;;;;;;7386830;19;19924;-81
2023/02/16 04:08:04;;;;;;;;;;;8.00;87.60;;;;;;7387612;19;19918;-82
2023/02/16 04:10:34;;;;;;;;;;;8.00;87.50;;;;;;7389274;19;19911;-81
2023/02/16 04:13:02;;;;;;;;;;;8.00;87.20;;;;;;7387655;19;19919;-80
2023/02/16 04:15:40;;;;;;;;;;;7.90;87.10;;;;;;7386469;19;19921;-80
2023/02/16 04:18:09;;;;;;;;;;;7.90;87.70;;;;;;7409694;19;19911;-80
2023/02/16 04:20:38;;;;;;;;;;;7.90;87.90;;;;;;7390410;19;19917;-81
2023/02/16 04:23:08;;;;;;;;;;;7.90;87.70;;;;;;7389115;19;19918;-80
2023/02/16 04:25:39;;;;;;;;;;;7.90;87.50;;;;;;7389269;19;19907;-81
2023/02/16 04:28:08;;;;;;;;;;;7.90;87.50;;;;;;7388634;19;19919;-80
2023/02/16 04:30:39;;;;;;;;;;;8.00;87.50;;;;;;7390229;19;19914;-80
2023/02/16 04:33:08;;;;;;;;;;;7.90;87.00;;;;;;7408574;19;19935;-80
2023/02/16 04:35:36;;;;;;;;;;;7.80;87.70;;;;;;7388138;19;19935;-80
2023/02/16 04:38:05;;;;;;;;;;;7.80;87.20;;;;;;7387714;19;19927;-81
2023/02/16 04:40:33;;;;;;;;;;;7.90;87.30;;;;;;7387834;19;19925;-80
2023/02/16 04:43:02;;;;;;;;;;;7.80;87.30;;;;;;7387337;19;19907;-80
2023/02/16 04:45:32;;;;;;;;;;;7.80;87.40;;;;;;7386612;19;19911;-79
2023/02/16 04:48:03;;;;;;;;;;;7.90;87.40;;;;;;7412288;19;19911;-82
2023/02/16 04:50:31;;;;;;;;;;;7.90;87.30;;;;;;7386920;19;19935;-81
2023/02/16 04:53:00;;;;;;;;;;;7.90;87.20;;;;;;7387072;19;20190;-81
2023/02/16 04:55:29;;;;;;;;;;;7.90;86.90;;;;;;7386444;19;20285;-80
2023/02/16 04:57:58;;;;;;;;;;;7.90;86.60;;;;;;7386179;19;19919;-80
2023/02/16 05:00:26;;;;;;;;;;;7.90;86.70;;;;;;7403337;19;20222;-80
2023/02/16 05:02:55;;;;;;;;;;;7.90;86.90;;;;;;7407000;19;19907;-80
2023/02/16 05:05:26;;;;;;;;;;;7.90;87.20;;;;;;7385060;19;19907;-81
2023/02/16 05:07:55;;;;;;;;;;;7.90;87.70;;;;;;7385285;19;19915;-80
2023/02/16 05:10:23;;;;;;;;;;;8.00;87.50;;;;;;7386431;19;19911;-80
2023/02/16 05:15:33;;;;;;;;;;;8.10;87.10;;;;;;7387332;19;19915;-81
2023/02/16 05:18:01;;;;;;;;;;;8.10;87.00;;;;;;7405731;19;20199;-79
2023/02/16 05:23:13;;;;;;;;;;;8.10;86.80;;;;;;7385783;19;19951;-80
2023/02/16 05:25:42;;;;;;;;;;;8.10;86.90;;;;;;7387913;19;19943;-80
2023/02/16 05:28:14;;;;;;;;;;;8.10;86.90;;;;;;7387725;19;19919;-81
2023/02/16 05:30:42;;;;;;;;;;;8.10;87.00;;;;;;7387957;19;19914;-80
2023/02/16 05:33:11;;;;;;;;;;;8.10;86.90;;;;;;7406212;19;19918;-81
2023/02/16 05:35:42;;;;;;;;;;;8.10;87.10;;;;;;7386796;19;19925;-80
2023/02/16 05:38:13;;;;;;;;;;;8.10;87.40;;;;;;7386134;19;20242;-81
2023/02/16 05:40:47;;;;;;;;;;;8.10;87.70;;;;;;7386021;19;19907;-81
2023/02/16 05:43:19;;;;;;;;;;;8.10;87.40;;;;;;7385521;19;20198;-81
2023/02/16 05:46:01;;;;;;;;;;;8.10;87.20;;;;;;7386174;19;19956;-81
2023/02/16 05:48:39;;;;;;;;;;;8.10;87.10;;;;;;7384751;19;19903;-81
2023/02/16 05:51:24;;;;;;;;;;;8.20;87.20;;;;;;7406698;19;19919;-81
2023/02/16 05:53:58;;;;;;;;;;;8.20;87.20;;;;;;7386141;19;19911;-81
2023/02/16 05:56:26;;;;;;;;;;;8.20;87.20;;;;;;7386969;19;19914;-81
2023/02/16 05:58:55;;;;;;;;;;;8.20;87.40;;;;;;7384006;19;19978;-82
2023/02/16 06:01:28;;;;;;;;;;;8.20;87.80;;;;;;7384244;19;19922;-82
2023/02/16 06:04:02;;;;;;;;;;;8.20;88.10;;;;;;7383051;19;19911;-82
2023/02/16 06:06:43;;;;;;;;;;;;;;;;;;;;;
2023/02/16 06:09:13;;;;;;;;;;;8.30;88.10;;;;;;7406573;19;19966;-80
2023/02/16 06:14:40;;;;;;;;;;;8.30;88.30;;;;;;7384576;19;19921;-79
2023/02/16 06:17:09;;;;;;;;;;;8.30;88.30;;;;;;7383701;19;19915;-80
2023/02/16 06:19:38;;;;;;;;;;;8.40;88.20;;;;;;7383113;19;19911;-80
2023/02/16 06:22:18;;;;;;;;;;;8.40;88.10;;;;;;7385329;19;19911;-81
2023/02/16 06:25:01;;;;;;;;;;;8.40;88.20;;;;;;7386736;19;19952;-81
2023/02/16 06:27:54;;;;;;;;;;;8.40;88.50;;;;;;7386229;19;19935;-81
2023/02/16 06:30:26;;;;;;;;;;;8.40;88.70;;;;;;7409544;19;19926;-81
2023/02/16 06:33:21;;;;;;;;;;;8.40;88.70;;;;;;7391320;19;19915;-80
2023/02/16 06:36:00;;;;;;;;;;;8.50;88.80;;;;;;7390193;19;19907;-81
2023/02/16 06:38:33;;;;;;;;;;;8.50;88.80;;;;;;7392621;19;19920;-80
2023/02/16 06:41:04;;;;;;;;;;;8.50;88.80;;;;;;7390425;19;19911;-81
2023/02/16 06:43:32;;;;;;;;;;;8.50;88.80;;;;;;7391616;19;19903;-79
2023/02/16 06:46:03;;;;;;;;;;;8.60;88.70;;;;;;7390112;19;19915;-81
2023/02/16 06:48:31;;;;;;;;;;;8.60;88.60;;;;;;7388831;19;19907;-80
2023/02/16 06:51:00;;;;;;;;;;;8.60;88.70;;;;;;7409785;19;19911;-80
2023/02/16 06:53:31;;;;;;;;;;;8.60;88.90;;;;;;7391122;19;20226;-80
2023/02/16 06:56:01;;;;;;;;;;;8.60;89.00;;;;;;7390026;19;20168;-81
2023/02/16 06:58:30;;;;;;;;;;;8.60;89.10;;;;;;7390072;19;20153;-80
2023/02/16 07:00:58;;;;;;;;;;;8.60;89.40;;;;;;7388272;19;19907;-80
2023/02/16 07:03:27;;;;;;;;;;;8.60;89.60;;;;;;7399438;19;19914;-81
2023/02/16 07:05:55;;;;;;;;;;;8.70;89.90;;;;;;7411239;19;19935;-80
2023/02/16 07:08:24;;;;;;;;;;;8.70;90.00;;;;;;7391101;19;19910;-80
2023/02/16 07:10:55;;;;;;;;;;;8.70;90.00;;;;;;7391314;19;19927;-80
2023/02/16 07:13:24;;;;;;;;;;;8.70;90.00;;;;;;7388381;19;19934;-81
2023/02/16 07:15:53;;;;;;;;;;;8.60;90.10;;;;;;7387823;19;19911;-80
2023/02/16 07:18:22;;;;;;;;;;;8.70;90.30;;;;;;7411114;19;19926;-80
2023/02/16 07:20:50;;;;;;;;;;;8.70;90.40;;;;;;7390566;19;19907;-80
2023/02/16 07:23:21;;;;;;;;;;;8.70;90.50;;;;;;7390907;19;19935;-80
2023/02/16 07:25:49;;;;;;;;;;;8.80;90.60;;;;;;7389814;19;19914;-80
2023/02/16 07:28:23;;;;;;;;;;;8.80;90.50;;;;;;7388094;19;19938;-81
2023/02/16 10:16:34;;;;;;;;;;;11.30;94.50;;;;;;7388268;19;19974;-80
2023/02/16 10:19:05;;;;;;;;;;;11.30;94.50;;;;;;7391481;19;19909;-81
2023/02/16 10:21:38;;;;;;;;;;;11.30;94.50;;;;;;7390412;19;19911;-80
2023/02/16 10:24:16;;;;;;;;;;;11.40;94.50;;;;;;7410954;19;19907;-82
2023/02/16 10:26:48;;;;;;;;;;;11.40;94.50;;;;;;7390701;19;20279;-81
2023/02/16 10:29:17;;;;;;;;;;;11.40;94.50;;;;;;7390516;19;20203;-80
2023/02/16 14:09:31;;;;;;;14.80;6.72;;;14.50;83.10;;;;;;7358562;19;20006;-80
2023/02/16 14:12:53;;;;;;;12.43;6.97;;;14.50;83.80;;;;;;7392972;19;20013;-81
2023/02/16 14:16:08;;;;;;;14.55;6.40;;;14.60;83.80;;;;;;7291405;19;2006125;-81
2023/02/16 14:21:59;;;;;;;13.93;6.53;;;14.70;84.20;;;;;;7411443;19;20043;-83
2023/02/16 14:24:34;;;;;;;17.17;7.20;;;14.50;84.80;;;;;;7392970;19;20009;-80
2023/02/16 14:46:28;;;;;;;14.43;6.67;;;14.40;85.50;;;;;;7386620;19;19999;-80
2023/02/16 14:49:32;;;;;;;12.63;6.78;;;14.50;84.40;;;;;;7384223;19;20003;-80
2023/02/16 14:52:36;;;;;;;11.25;6.25;;;14.40;84.30;;;;;;7383093;19;20011;-80
2023/02/16 14:55:34;;;;;;;12.55;6.78;;;14.50;84.20;;;;;;7383105;19;20017;-80
2023/02/16 14:58:13;;;;;;;14.10;6.22;;;14.40;83.40;;;;;;7385997;19;20232;-80
2023/02/16 15:00:47;;;;;;;13.15;6.43;;;14.40;84.20;;;;;;7384427;19;20035;-80
2023/02/16 15:21:23;;;;;;;9.75;5.75;;;14.80;83.10;;;;;;7373056;19;20368;-81
2023/02/16 15:23:53;;;;;;;10.70;5.60;;;14.80;82.90;;;;;;7387782;19;20011;-81
2023/02/16 15:45:37;;;;;;;10.15;6.07;;;14.70;81.30;;;;;;7407135;19;20006;-82
2023/02/16 16:07:56;;;;;;;10.52;5.57;;;14.60;82.10;;;;;;7361577;19;20010;-82
2023/02/16 16:53:53;;;;;;;13.77;7.38;;;13.90;86.50;;;;;;3485118;19;7262365;-82
2023/02/16 16:56:24;;;;;;;12.40;7.30;;;13.80;87.20;;;;;;7420313;19;20003;-82
2023/02/16 18:23:17;;;;;;;22.42;11.00;;;14.00;91.20;;;;;;7355906;19;20003;-82
2023/02/16 18:52:33;;;;;;;22.48;10.77;;;14.10;91.30;;;;;;7013590;19;3009842;-82
2023/02/16 18:55:09;;;;;;;22.33;10.63;;;14.20;91.70;;;;;;7423086;19;20027;-85
2023/02/16 18:57:38;;;;;;;20.48;12.00;;;14.10;91.80;;;;;;7419909;19;20014;-81
2023/02/16 19:00:47;;;;;;;28.85;12.48;;;14.10;91.80;;;;;;7441840;19;20256;-90
